Aviation Digital Data Service (ADDS)

Output produced by METARs form (1217 UTC 15 December 2017)
found at http://aviationweather.gov/adds/metars/
 
KLAN 151140Z 1512/1612 21011KT P6SM OVC035 
     FM151530 24012G22KT 5SM -SN BR OVC030 
     FM151900 26013G23KT 6SM -SN OVC035 
     FM152300 25008KT P6SM BKN035 
     FM161000 23006KT 5SM -SN BR OVC025